Time;durP1;ratioP1;P1;durP2;ratioP2;P2;SDS_P1;SDS_P2;PMS_P1;PMS_P2;Temp;Humidity;BMP_temperature;BMP_pressure;BME280_temperature;BME280_humidity;BME280_pressure;Samples;Min_cycle;Max_cycle;Signal;HPM_P1;HPM_P2
2021/09/05 00:01:30;;;;;;;;;;;;;;;-144.99;100.00;52333.94;5079422;28;20333;-75
2021/09/05 00:04:01;;;;;;;;;;;;;;;-144.99;100.00;52329.88;5077926;28;19974;-75
2021/09/05 00:06:28;;;;;;;;;;;;;;;-144.99;100.00;52344.16;5075855;28;19975;-75
2021/09/05 00:08:54;;;;;;;;;;;;;;;-144.99;100.00;52338.03;5075836;28;20285;-75
2021/09/05 00:11:20;;;;;;;;;;;;;;;-144.99;100.00;52315.59;5076641;28;19973;-75
2021/09/05 00:13:46;;;;;;;;;;;;;;;-144.99;100.00;52362.50;5076044;28;19974;-73
2021/09/05 00:16:13;;;;;;;;;;;;;;;-144.99;100.00;52333.94;5078461;28;19975;-73
2021/09/05 00:18:40;;;;;;;;;;;;;;;-144.99;100.00;52342.09;5076816;28;19978;-74
2021/09/05 00:21:07;;;;;;;;;;;;;;;-144.99;100.00;52305.41;5077184;28;19980;-74
2021/09/05 00:23:33;;;;;;;;;;;;;;;-144.99;100.00;52321.72;5077450;28;20032;-75
2021/09/05 00:25:59;;;;;;;;;;;;;;;-144.99;100.00;52309.50;5074296;28;19981;-75
2021/09/05 00:28:26;;;;;;;;;;;;;;;-144.99;100.00;52297.25;5078936;28;19974;-75
2021/09/05 00:30:52;;;;;;;;;;;;;;;-144.99;100.00;52309.50;5074675;28;20826;-75
2021/09/05 00:33:18;;;;;;;;;;;;;;;-144.99;100.00;52333.94;5078714;28;20125;-74
2021/09/05 00:35:46;;;;;;;;;;;;;;;-144.99;100.00;52297.25;5078358;28;20505;-76
2021/09/05 00:38:12;;;;;;;;;;;;;;;-144.99;100.00;52289.13;5075055;28;19971;-73
2021/09/05 00:40:38;;;;;;;;;;;;;;;-144.99;100.00;52342.09;5076299;28;19994;-73
2021/09/05 00:43:05;;;;;;;;;;;;;;;-144.99;100.00;52321.72;5075984;28;19981;-73
2021/09/05 00:45:31;;;;;;;;;;;;;;;-144.99;100.00;52344.16;5070621;28;19980;-72
2021/09/05 00:47:59;;;;;;;;;;;;;;;-144.99;100.00;52329.88;5076271;28;19975;-72
2021/09/05 00:50:25;;;;;;;;;;;;;;;-144.99;100.00;52325.81;5074851;28;19998;-74
2021/09/05 00:52:53;;;;;;;;;;;;;;;-144.99;100.00;52305.41;5074271;28;19981;-73
2021/09/05 00:55:19;;;;;;;;;;;;;;;-144.99;100.00;52354.34;5077563;28;20069;-74
2021/09/05 00:57:46;;;;;;;;;;;;;;;-144.99;100.00;52354.34;5078696;28;20017;-74
2021/09/05 01:00:13;;;;;;;;;;;;;;;-144.99;100.00;52305.41;5075531;28;19990;-72
2021/09/05 01:02:39;;;;;;;;;;;;;;;-144.99;100.00;52313.56;5077978;28;19995;-74
2021/09/05 01:05:06;;;;;;;;;;;;;;;-144.99;100.00;52285.03;5075827;28;20729;-75
2021/09/05 01:07:33;;;;;;;;;;;;;;;-144.99;100.00;52321.72;5071717;28;19977;-74
2021/09/05 01:10:01;;;;;;;;;;;;;;;-144.99;100.00;52331.91;5076861;28;20000;-74
2021/09/05 01:12:27;;;;;;;;;;;;;;;-144.99;100.00;52321.72;5077006;28;19973;-74
2021/09/05 01:14:53;;;;;;;;;;;;;;;-144.99;100.00;52325.81;5079053;28;20439;-74
2021/09/05 01:17:20;;;;;;;;;;;;;;;-144.99;100.00;52346.19;5074615;28;19989;-74
2021/09/05 01:19:46;;;;;;;;;;;;;;;-144.99;100.00;52309.50;5077259;28;19994;-74
2021/09/05 01:22:12;;;;;;;;;;;;;;;-144.99;100.00;52342.09;5080259;28;20490;-75
2021/09/05 01:24:38;;;;;;;;;;;;;;;-144.99;100.00;52321.72;5079475;28;19973;-73
2021/09/05 01:27:06;;;;;;;;;;;;;;;-144.99;100.00;52342.09;5079490;28;19973;-74
2021/09/05 01:29:33;;;;;;;;;;;;;;;-144.99;100.00;52374.72;5078375;28;19995;-74
2021/09/05 01:31:59;;;;;;;;;;;;;;;-144.99;100.00;52350.25;5079465;28;19978;-74
2021/09/05 01:34:26;;;;;;;;;;;;;;;-144.99;100.00;52309.50;5081146;28;20108;-75
2021/09/05 01:36:54;;;;;;;;;;;;;;;-144.99;100.00;52297.25;5079049;28;19988;-72
2021/09/05 01:39:21;;;;;;;;;;;;;;;-144.99;100.00;52317.66;4724256;28;10000089;-73
2021/09/05 01:41:47;;;;;;;;;;;;;;;-144.99;100.00;52309.50;5079304;28;20417;-73
2021/09/05 01:44:17;;;;;;;;;;;;;;;-144.99;100.00;52342.09;5081498;28;20472;-74
2021/09/05 01:46:43;;;;;;;;;;;;;;;-144.99;100.00;52313.56;5078889;28;19978;-75
2021/09/05 01:49:09;;;;;;;;;;;;;;;-144.99;100.00;52272.81;5080890;28;19977;-74
2021/09/05 01:51:36;;;;;;;;;;;;;;;-144.99;100.00;52321.72;5077758;28;20018;-75
2021/09/05 01:54:03;;;;;;;;;;;;;;;-144.99;100.00;52301.34;5079273;28;19978;-77
2021/09/05 01:56:29;;;;;;;;;;;;;;;-144.99;100.00;52329.88;5078556;28;20510;-76
2021/09/05 01:58:55;;;;;;;;;;;;;;;-144.99;100.00;52366.56;5081212;28;19988;-75
2021/09/05 02:01:23;;;;;;;;;;;;;;;-144.99;100.00;52342.09;5080576;28;20707;-75
2021/09/05 02:03:49;;;;;;;;;;;;;;;-144.99;100.00;52313.56;5085031;28;20021;-75
2021/09/05 02:06:16;;;;;;;;;;;;;;;-144.99;100.00;52350.25;5080450;28;20353;-75
2021/09/05 02:08:42;;;;;;;;;;;;;;;-144.99;100.00;52362.50;5084239;28;19979;-75
2021/09/05 02:11:08;;;;;;;;;;;;;;;-144.99;100.00;52344.16;5083197;28;19970;-75
2021/09/05 02:13:35;;;;;;;;;;;;;;;-144.99;100.00;52305.41;5085526;28;19971;-75
2021/09/05 02:16:01;;;;;;;;;;;;;;;-144.99;100.00;52317.66;5092336;28;19977;-76
2021/09/05 02:18:29;;;;;;;;;;;;;;;-144.99;100.00;52329.88;5089036;28;20034;-75
2021/09/05 02:20:56;;;;;;;;;;;;;;;-144.99;100.00;52350.25;5079847;28;19985;-76
2021/09/05 02:23:22;;;;;;;;;;;;;;;-144.99;100.00;52319.69;5085209;28;19978;-76
2021/09/05 02:25:48;;;;;;;;;;;;;;;-144.99;100.00;52358.41;5086905;28;20006;-75
2021/09/05 02:28:15;;;;;;;;;;;;;;;-144.99;100.00;52352.28;5085896;28;19985;-76
2021/09/05 02:30:41;;;;;;;;;;;;;;;-144.99;100.00;52297.25;5079840;28;20051;-76
2021/09/05 02:33:08;;;;;;;;;;;;;;;-144.99;100.00;52309.50;5080985;28;19974;-75
2021/09/05 02:35:35;;;;;;;;;;;;;;;-144.99;100.00;52338.03;5081795;28;21213;-76
2021/09/05 02:38:02;;;;;;;;;;;;;;;-144.99;100.00;52317.66;5084603;28;20004;-76
2021/09/05 02:40:28;;;;;;;;;;;;;;;-144.99;100.00;52311.53;5084853;28;20006;-76
2021/09/05 02:42:54;;;;;;;;;;;;;;;-144.99;100.00;52321.72;5084237;28;20017;-76
2021/09/05 02:45:20;;;;;;;;;;;;;;;-144.99;100.00;52297.25;5083558;28;20410;-76
2021/09/05 02:47:47;;;;;;;;;;;;;;;-144.99;100.00;52309.50;5084178;28;19978;-76
2021/09/05 02:50:13;;;;;;;;;;;;;;;-144.99;100.00;52344.16;5081589;28;20267;-75
2021/09/05 02:52:41;;;;;;;;;;;;;;;-144.99;100.00;52338.03;5081658;28;19972;-76
2021/09/05 02:55:07;;;;;;;;;;;;;;;-144.99;100.00;52346.19;5082869;28;19980;-76
2021/09/05 02:57:34;;;;;;;;;;;;;;;-144.99;100.00;52325.81;5081269;28;19994;-76
2021/09/05 03:00:00;;;;;;;;;;;;;;;-144.99;100.00;52378.78;5087272;28;19987;-76
2021/09/05 03:02:26;;;;;;;;;;;;;;;-144.99;100.00;52327.84;5086203;28;19975;-76
2021/09/05 03:04:53;;;;;;;;;;;;;;;-144.99;100.00;52313.56;5078161;28;20367;-76
2021/09/05 03:07:19;;;;;;;;;;;;;;;-144.99;100.00;52350.25;5078670;28;19978;-75
2021/09/05 03:09:47;;;;;;;;;;;;;;;-144.99;100.00;52338.03;5078946;28;19994;-73
2021/09/05 03:12:13;;;;;;;;;;;;;;;-144.99;100.00;52366.56;5081904;28;20321;-74
2021/09/05 03:14:39;;;;;;;;;;;;;;;-144.99;100.00;52350.25;5080020;28;20074;-75
2021/09/05 03:17:06;;;;;;;;;;;;;;;-144.99;100.00;52342.09;5081727;28;20321;-75
2021/09/05 03:19:32;;;;;;;;;;;;;;;-144.99;100.00;52366.56;5079981;28;19993;-74
2021/09/05 03:21:58;;;;;;;;;;;;;;;-144.99;100.00;52354.34;5078632;28;20159;-76
2021/09/05 03:24:24;;;;;;;;;;;;;;;-144.99;100.00;52323.75;5078640;28;20001;-74
2021/09/05 03:26:52;;;;;;;;;;;;;;;-144.99;100.00;52338.03;5077750;28;20028;-76
2021/09/05 03:29:18;;;;;;;;;;;;;;;-144.99;100.00;52352.28;5078699;28;20348;-75
2021/09/05 03:31:44;;;;;;;;;;;;;;;-144.99;100.00;52327.84;5083529;28;19983;-76
2021/09/05 03:34:11;;;;;;;;;;;;;;;-144.99;100.00;52358.41;5080003;28;19967;-75
2021/09/05 03:36:37;;;;;;;;;;;;;;;-144.99;100.00;52331.91;5078098;28;19967;-75
2021/09/05 03:39:06;;;;;;;;;;;;;;;-144.99;100.00;52350.25;5075163;28;19986;-75
2021/09/05 03:41:32;;;;;;;;;;;;;;;-144.99;100.00;52354.34;5081664;28;19979;-76
2021/09/05 03:44:00;;;;;;;;;;;;;;;-144.99;100.00;52374.72;5082794;28;19970;-77
2021/09/05 03:46:26;;;;;;;;;;;;;;;-144.99;100.00;52356.38;5082515;28;20041;-77
2021/09/05 03:48:52;;;;;;;;;;;;;;;-144.99;100.00;52346.19;5085319;28;19993;-75
2021/09/05 03:51:19;;;;;;;;;;;;;;;-144.99;100.00;52338.03;5085024;28;19971;-75
2021/09/05 03:53:45;;;;;;;;;;;;;;;-144.99;100.00;52338.03;5081299;28;19986;-76
2021/09/05 03:56:12;;;;;;;;;;;;;;;-144.99;100.00;52319.69;5075266;28;20018;-76
2021/09/05 03:58:38;;;;;;;;;;;;;;;-144.99;100.00;52354.34;5080234;28;19991;-75
2021/09/05 04:01:06;;;;;;;;;;;;;;;-144.99;100.00;52333.94;5079655;28;19996;-75
2021/09/05 04:03:32;;;;;;;;;;;;;;;-144.99;100.00;52342.09;5079583;28;20468;-76
2021/09/05 04:05:58;;;;;;;;;;;;;;;-144.99;100.00;52350.25;5077073;28;19974;-76
2021/09/05 04:08:31;;;;;;;;;;;;;;;-144.99;100.00;52301.34;5078983;28;19931;-76
2021/09/05 04:10:57;;;;;;;;;;;;;;;-144.99;100.00;52313.56;5077735;28;19970;-75
2021/09/05 04:13:23;;;;;;;;;;;;;;;-144.99;100.00;52362.50;5077794;28;19979;-76
2021/09/05 04:15:49;;;;;;;;;;;;;;;-144.99;100.00;52366.56;5081803;28;20429;-75
2021/09/05 04:18:17;;;;;;;;;;;;;;;-144.99;100.00;52315.59;5079039;28;20009;-74
2021/09/05 04:20:43;;;;;;;;;;;;;;;-144.99;100.00;52313.56;5079211;28;20474;-74
2021/09/05 04:23:10;;;;;;;;;;;;;;;-144.99;100.00;52317.66;5079770;28;20249;-74
2021/09/05 04:25:36;;;;;;;;;;;;;;;-144.99;100.00;52325.81;5080598;28;19977;-75
2021/09/05 04:28:02;;;;;;;;;;;;;;;-144.99;100.00;52340.06;5081120;28;20137;-75
2021/09/05 04:30:29;;;;;;;;;;;;;;;-144.99;100.00;52409.38;5081975;28;19992;-75
2021/09/05 04:32:55;;;;;;;;;;;;;;;-144.99;100.00;52342.09;5080341;28;20314;-74
2021/09/05 04:35:22;;;;;;;;;;;;;;;-144.99;100.00;52323.75;5082932;28;19965;-74
2021/09/05 04:37:49;;;;;;;;;;;;;;;-144.99;100.00;52360.44;5079136;28;19993;-74
2021/09/05 04:40:15;;;;;;;;;;;;;;;-144.99;100.00;52331.91;5078768;28;20370;-75
2021/09/05 04:42:41;;;;;;;;;;;;;;;-144.99;100.00;52348.22;5081042;28;19988;-75
2021/09/05 04:45:08;;;;;;;;;;;;;;;-144.99;100.00;52366.56;5081810;28;20433;-74
2021/09/05 04:47:34;;;;;;;;;;;;;;;-144.99;100.00;52333.94;5082260;28;19974;-75
2021/09/05 04:50:01;;;;;;;;;;;;;;;-144.99;100.00;52346.19;5075613;28;19990;-75
2021/09/05 04:52:28;;;;;;;;;;;;;;;-144.99;100.00;52346.19;5077156;28;19972;-75
2021/09/05 04:54:55;;;;;;;;;;;;;;;-144.99;100.00;52338.03;5078815;28;20490;-76
2021/09/05 04:57:21;;;;;;;;;;;;;;;-144.99;100.00;52352.28;5080662;28;19972;-76
2021/09/05 04:59:47;;;;;;;;;;;;;;;-144.99;100.00;52319.69;5078304;28;20018;-77
2021/09/05 05:02:13;;;;;;;;;;;;;;;-144.99;100.00;52399.19;5079502;28;19972;-77
2021/09/05 05:04:40;;;;;;;;;;;;;;;-144.99;100.00;52325.81;5075877;28;20041;-76
2021/09/05 05:07:06;;;;;;;;;;;;;;;-144.99;100.00;52342.09;5073776;28;20424;-76
2021/09/05 05:09:34;;;;;;;;;;;;;;;-144.99;100.00;52333.94;5078176;28;19998;-77
2021/09/05 05:12:00;;;;;;;;;;;;;;;-144.99;100.00;52342.09;5082078;28;20449;-76
2021/09/05 05:14:26;;;;;;;;;;;;;;;-144.99;100.00;52301.34;5082289;28;19972;-77
2021/09/05 05:16:52;;;;;;;;;;;;;;;-144.99;100.00;52285.03;5090182;28;19996;-76
2021/09/05 05:19:19;;;;;;;;;;;;;;;-144.99;100.00;52329.88;5080730;28;19995;-74
2021/09/05 05:21:45;;;;;;;;;;;;;;;-144.99;100.00;52305.41;5074227;28;19978;-75
2021/09/05 05:24:11;;;;;;;;;;;;;;;-144.99;100.00;52289.13;5079938;28;19978;-76
2021/09/05 05:26:39;;;;;;;;;;;;;;;-144.99;100.00;52333.94;5078510;28;20026;-76
2021/09/05 05:29:05;;;;;;;;;;;;;;;-144.99;100.00;52358.41;5080676;28;19991;-75
2021/09/05 05:31:31;;;;;;;;;;;;;;;-144.99;100.00;52338.03;5076849;28;19984;-75
2021/09/05 05:33:58;;;;;;;;;;;;;;;-144.99;100.00;52321.72;5075382;28;20185;-74
2021/09/05 05:36:24;;;;;;;;;;;;;;;-144.99;100.00;52297.25;5076947;28;19976;-75
2021/09/05 05:38:50;;;;;;;;;;;;;;;-144.99;100.00;52301.34;5077837;28;20420;-74
2021/09/05 05:41:19;;;;;;;;;;;;;;;-144.99;98.98;52317.66;5074437;28;19981;-74
2021/09/05 05:43:46;;;;;;;;;;;;;;;-144.99;98.94;52329.88;5075213;28;19975;-74
2021/09/05 05:46:13;;;;;;;;;;;;;;;-144.99;98.75;52264.66;5075616;28;19978;-73
2021/09/05 05:48:39;;;;;;;;;;;;;;;-144.99;98.27;52321.72;5076771;28;19975;-75
2021/09/05 05:51:05;;;;;;;;;;;;;;;-144.99;98.45;52325.81;5077159;28;20004;-75
2021/09/05 05:53:32;;;;;;;;;;;;;;;-144.99;98.16;52313.56;5079194;28;19971;-74
2021/09/05 05:55:58;;;;;;;;;;;;;;;-144.99;97.41;52297.25;5076369;28;19983;-74
2021/09/05 05:58:24;;;;;;;;;;;;;;;-144.99;97.46;52321.72;5075808;28;19990;-73
2021/09/05 06:00:52;;;;;;;;;;;;;;;-144.99;96.94;52280.97;5073569;28;19998;-73
2021/09/05 06:03:18;;;;;;;;;;;;;;;-144.99;96.46;52309.50;5074126;28;20220;-73
2021/09/05 06:05:44;;;;;;;;;;;;;;;-144.99;95.77;52278.91;5077300;28;19981;-72
2021/09/05 06:08:11;;;;;;;;;;;;;;;-144.99;95.43;52309.50;5080424;28;20347;-73
2021/09/05 06:10:37;;;;;;;;;;;;;;;-144.99;94.66;52293.19;5078695;28;20014;-74
2021/09/05 06:13:03;;;;;;;;;;;;;;;-144.99;94.30;52293.19;5084706;28;19975;-74
2021/09/05 06:15:30;;;;;;;;;;;;;;;-144.99;93.85;52321.72;5079786;28;19972;-74
2021/09/05 06:17:57;;;;;;;;;;;;;;;-144.99;93.02;52313.56;5077539;28;19982;-72
2021/09/05 06:20:24;;;;;;;;;;;;;;;-144.99;92.63;52264.66;5081911;28;20428;-74
2021/09/05 06:22:50;;;;;;;;;;;;;;;-144.99;92.17;52287.06;5082249;28;19970;-73
2021/09/05 06:25:17;;;;;;;;;;;;;;;-144.99;91.71;52295.22;5083157;28;19976;-74
2021/09/05 06:27:43;;;;;;;;;;;;;;;-144.99;91.38;52280.97;5083424;28;20161;-75
2021/09/05 06:30:10;;;;;;;;;;;;;;;-144.99;90.44;52276.88;5082793;28;19998;-76
2021/09/05 06:32:37;;;;;;;;;;;;;;;-144.99;88.62;52293.19;5080156;28;19980;-76
2021/09/05 06:35:05;;;;;;;;;;;;;;;-144.99;88.92;52285.03;5077187;28;19975;-76
2021/09/05 06:37:31;;;;;;;;;;;;;;;-144.99;88.46;52297.25;5077625;28;19980;-76
2021/09/05 06:39:57;;;;;;;;;;;;;;;-144.99;86.69;52256.50;5078683;28;20100;-75
2021/09/05 06:42:24;;;;;;;;;;;;;;;-144.99;86.75;52278.91;5077665;28;19978;-76
2021/09/05 06:44:50;;;;;;;;;;;;;;;-144.99;85.82;52287.06;5078976;28;20016;-76
2021/09/05 06:47:16;;;;;;;;;;;;;;;-144.99;85.46;52272.81;5078608;28;19972;-76
2021/09/05 06:49:43;;;;;;;;;;;;;;;-144.99;84.66;52248.34;5078792;28;20083;-74
2021/09/05 06:52:13;;;;;;;;;;;;;;;-144.99;84.04;52264.66;5079067;28;20331;-75
2021/09/05 06:54:39;;;;;;;;;;;;;;;-144.99;82.22;52236.13;5076998;28;19975;-75
2021/09/05 06:57:06;;;;;;;;;;;;;;;-144.99;80.84;52301.34;5083205;28;19975;-75
2021/09/05 06:59:33;;;;;;;;;;;;;;;-144.99;80.09;52285.03;5074631;28;20022;-76
2021/09/05 07:01:59;;;;;;;;;;;;;;;-144.99;79.99;52268.72;5082349;28;19987;-76
2021/09/05 07:04:25;;;;;;;;;;;;;;;-144.99;79.36;52317.66;5075431;28;19986;-75
2021/09/05 07:06:52;;;;;;;;;;;;;;;-144.99;79.68;52254.47;5080333;28;19979;-75
2021/09/05 07:09:19;;;;;;;;;;;;;;;-144.99;79.15;52264.66;5080163;28;20316;-76
2021/09/05 07:11:45;;;;;;;;;;;;;;;-144.99;78.68;52250.38;5077967;28;19983;-74
2021/09/05 07:14:12;;;;;;;;;;;;;;;-144.99;78.31;52260.56;5080448;28;19975;-75
2021/09/05 07:16:38;;;;;;;;;;;;;;;-144.99;77.92;52258.53;5079625;28;20001;-76
2021/09/05 07:19:04;;;;;;;;;;;;;;;-144.99;77.83;52293.19;5077583;28;20006;-76
2021/09/05 07:21:31;;;;;;;;;;;;;;;-144.99;78.08;52272.81;5074229;28;19974;-75
2021/09/05 07:23:57;;;;;;;;;;;;;;;-144.99;76.80;52272.81;5081843;28;19974;-74
2021/09/05 07:26:24;;;;;;;;;;;;;;;-144.99;76.47;52270.78;5077699;28;20592;-75
2021/09/05 07:28:51;;;;;;;;;;;;;;;-144.99;75.67;52248.34;5079847;28;19981;-75
2021/09/05 07:31:17;;;;;;;;;;;;;;;-144.99;75.21;52246.31;5081395;28;20066;-74
2021/09/05 07:33:43;;;;;;;;;;;;;;;-144.99;73.31;52272.81;5081464;28;19978;-76
2021/09/05 07:36:10;;;;;;;;;;;;;;;-144.99;73.11;52215.75;5079200;28;19978;-74
2021/09/05 07:38:36;;;;;;;;;;;;;;;-144.99;72.60;52272.81;5077452;28;19974;-75
2021/09/05 07:41:02;;;;;;;;;;;;;;;-144.99;71.82;52244.28;5076987;28;20426;-76
2021/09/05 07:43:30;;;;;;;;;;;;;;;-144.99;70.67;52232.03;5079012;28;19980;-76
2021/09/05 07:45:56;;;;;;;;;;;;;;;-144.99;70.91;52211.66;5074518;28;19986;-76
2021/09/05 07:48:22;;;;;;;;;;;;;;;-144.99;71.37;52227.97;5079641;28;19975;-75
2021/09/05 07:50:49;;;;;;;;;;;;;;;-144.99;71.16;52262.63;5074566;28;19985;-76
2021/09/05 07:53:15;;;;;;;;;;;;;;;-144.99;70.27;52244.28;5078695;28;19986;-76
2021/09/05 07:55:41;;;;;;;;;;;;;;;-144.99;68.19;52252.44;5076155;28;19981;-76
2021/09/05 07:58:08;;;;;;;;;;;;;;;-144.99;67.55;52207.59;5079453;28;20436;-75
2021/09/05 08:00:35;;;;;;;;;;;;;;;-144.99;67.08;52211.66;5076162;28;20004;-75
2021/09/05 08:03:02;;;;;;;;;;;;;;;-144.99;65.41;52244.28;5078357;28;19970;-75
2021/09/05 08:05:28;;;;;;;;;;;;;;;-144.99;64.95;52223.88;5076383;28;20633;-74
2021/09/05 08:07:54;;;;;;;;;;;;;;;-144.99;63.72;52215.75;5076073;28;20074;-74
2021/09/05 08:10:21;;;;;;;;;;;;;;;-144.99;65.00;52252.44;5074152;28;19991;-73
2021/09/05 08:12:47;;;;;;;;;;;;;;;-144.99;65.03;52207.59;5078930;28;20363;-75
2021/09/05 08:15:13;;;;;;;;;;;;;;;-144.99;65.89;52244.28;5080065;28;20198;-74
2021/09/05 08:17:41;;;;;;;;;;;;;;;-144.99;65.35;52223.88;5083292;28;20326;-74
2021/09/05 08:20:08;;;;;;;;;;;;;;;-144.99;63.78;52199.44;5083113;28;20111;-74
2021/09/05 08:22:34;;;;;;;;;;;;;;;-144.99;62.61;52195.34;5076366;28;20356;-76
2021/09/05 08:25:01;;;;;;;;;;;;;;;-144.99;61.71;52203.50;5076255;28;20380;-73
2021/09/05 08:27:27;;;;;;;;;;;;;;;-144.99;60.95;52211.66;5077691;28;20337;-74
2021/09/05 08:29:53;;;;;;;;;;;;;;;-144.99;60.28;52211.66;5078883;28;19998;-76
2021/09/05 08:32:20;;;;;;;;;;;;;;;-144.99;59.32;52232.03;5079755;28;19963;-76
2021/09/05 08:34:47;;;;;;;;;;;;;;;-144.99;59.79;52174.97;5078117;28;19982;-75
2021/09/05 08:37:13;;;;;;;;;;;;;;;-144.99;58.56;52215.75;5077868;28;19966;-77
2021/09/05 08:39:40;;;;;;;;;;;;;;;-144.99;58.46;52215.75;5074696;28;19979;-77
2021/09/05 08:42:07;;;;;;;;;;;;;;;-144.99;57.12;52174.97;5082091;28;19956;-77
2021/09/05 08:44:33;;;;;;;;;;;;;;;-144.99;57.55;52195.34;5078770;28;19999;-76
2021/09/05 08:46:59;;;;;;;;;;;;;;;-144.99;58.43;52174.97;5078773;28;19971;-76
2021/09/05 08:49:27;;;;;;;;;;;;;;;-144.99;58.43;52195.34;5074949;28;19979;-75
2021/09/05 08:51:54;;;;;;;;;;;;;;;-144.99;57.15;52215.75;5077452;28;19958;-77
2021/09/05 08:54:21;;;;;;;;;;;;;;;-144.99;56.64;52203.50;4373069;28;10000742;-75
2021/09/05 08:56:48;;;;;;;;;;;;;;;-144.99;56.00;52162.75;5078126;28;20008;-76
2021/09/05 08:59:14;;;;;;;;;;;;;;;-144.99;54.14;52199.44;5082461;28;19976;-76
2021/09/05 09:01:51;;;;;;;;;;;;;;;-144.99;54.29;52199.44;5083194;28;19986;-77
2021/09/05 09:04:17;;;;;;;;;;;;;;;-144.99;53.67;52179.06;5079032;28;19947;-75
2021/09/05 09:06:43;;;;;;;;;;;;;;;-144.99;54.00;52211.66;5076754;28;19957;-74
2021/09/05 09:09:11;;;;;;;;;;;;;;;-144.99;54.26;52170.91;5079342;28;19979;-76
2021/09/05 09:11:47;;;;;;;;;;;;;;;-144.99;53.46;52172.94;5082661;28;19960;-75
2021/09/05 09:14:13;;;;;;;;;;;;;;;-144.99;53.31;52172.94;5070864;28;19958;-77
2021/09/05 09:16:40;;;;;;;;;;;;;;;-144.99;52.63;52146.44;5082504;28;19963;-77
2021/09/05 09:19:06;;;;;;;;;;;;;;;-144.99;51.91;52154.59;5080714;28;20436;-76
2021/09/05 09:21:37;;;;;;;;;;;;;;;-144.99;51.50;52126.06;5081192;28;19960;-76
2021/09/05 09:24:08;;;;;;;;;;;;;;;-144.99;51.19;52191.28;5072479;28;19954;-75
2021/09/05 09:26:36;;;;;;;;;;;;;;;-144.99;50.36;52136.25;5082719;28;19977;-76
2021/09/05 09:29:02;;;;;;;;;;;;;;;-144.99;49.75;52126.06;5081051;28;19962;-77
2021/09/05 09:31:29;;;;;;;;;;;;;;;-144.99;49.50;52148.47;5071881;28;19954;-78
2021/09/05 09:33:56;;;;;;;;;;;;;;;-144.99;48.58;52134.22;5076480;28;19964;-77
2021/09/05 09:36:23;;;;;;;;;;;;;;;-144.99;49.03;52170.91;5081246;28;19953;-75
2021/09/05 09:38:53;;;;;;;;;;;;;;;-144.99;48.50;52138.28;5081128;28;19935;-76
2021/09/05 09:41:19;;;;;;;;;;;;;;;-144.99;48.71;52138.28;5074447;28;19968;-75
2021/09/05 09:43:51;;;;;;;;;;;;;;;-144.99;48.08;52158.66;5079418;28;20354;-76
2021/09/05 09:46:19;;;;;;;;;;;;;;;-144.99;47.49;52109.75;5086551;28;19951;-76
2021/09/05 09:48:49;;;;;;;;;;;;;;;-144.99;46.86;52142.38;5085407;28;20434;-75
2021/09/05 09:51:15;;;;;;;;;;;;;;;-144.99;46.34;52091.41;5084773;28;19939;-75
2021/09/05 09:53:42;;;;;;;;;;;;;;;-144.99;45.42;52117.91;5084887;28;19943;-77
2021/09/05 09:56:09;;;;;;;;;;;;;;;-144.99;44.69;52093.44;5079192;28;19958;-76
2021/09/05 09:58:36;;;;;;;;;;;;;;;-144.99;45.71;52107.72;5080519;28;19982;-76
2021/09/05 10:01:04;;;;;;;;;;;;;;;-144.99;45.99;52142.38;5084449;28;19942;-75
2021/09/05 10:03:31;;;;;;;;;;;;;;;-144.99;45.22;52121.97;5078214;28;19939;-78
2021/09/05 10:05:58;;;;;;;;;;;;;;;-144.99;44.56;52075.09;5080036;28;19981;-76
2021/09/05 10:08:25;;;;;;;;;;;;;;;-144.99;44.48;52115.88;5083612;28;20416;-75
2021/09/05 10:10:52;;;;;;;;;;;;;;;-144.99;44.60;52113.84;5085553;28;19936;-75
2021/09/05 10:13:18;;;;;;;;;;;;;;;-144.99;45.05;52101.59;5085522;28;20544;-75
2021/09/05 10:15:45;;;;;;;;;;;;;;;-144.99;44.27;52060.84;5086176;28;19955;-77
2021/09/05 10:18:13;;;;;;;;;;;;;;;-144.99;43.27;52064.91;5085046;28;19959;-77
2021/09/05 10:20:39;;;;;;;;;;;;;;;-144.99;42.69;52032.31;5085266;28;19924;-76
2021/09/05 10:23:06;;;;;;;;;;;;;;;-144.99;41.67;52026.19;5083997;28;19935;-76
2021/09/05 10:25:32;;;;;;;;;;;;;;;-144.99;41.64;52003.78;5082689;28;19946;-76
2021/09/05 10:28:00;;;;;;;;;;;;;;;-144.99;41.28;51991.56;5078440;28;19928;-78
2021/09/05 10:30:26;;;;;;;;;;;;;;;-144.99;40.82;52003.78;5069165;28;20315;-76
2021/09/05 10:32:54;;;;;;;;;;;;;;;-144.99;40.46;52016.00;5080868;28;19939;-78
2021/09/05 10:35:29;;;;;;;;;;;;;;;-144.99;39.69;51971.16;5083662;28;20297;-75
2021/09/05 10:38:10;;;;;;;;;;;;;;;-144.99;39.84;51950.78;5083068;28;19955;-77
2021/09/05 10:40:39;;;;;;;;;;;;;;;-144.99;38.95;51940.59;5073016;28;19929;-77
2021/09/05 10:43:05;;;;;;;;;;;;;;;-144.99;38.51;51942.63;5085387;28;20399;-77
2021/09/05 10:45:33;;;;;;;;;;;;;;;-144.99;38.02;51954.88;5085423;28;19928;-76
2021/09/05 10:47:59;;;;;;;;;;;;;;;-144.99;37.93;51922.25;5077238;28;19932;-78
2021/09/05 10:50:34;;;;;;;;;;;;;;;-144.99;37.69;51926.34;5084507;28;19932;-78
2021/09/05 10:53:16;;;;;;;;;;;;;;;-144.99;37.12;51928.38;5081458;28;19931;-76
2021/09/05 10:56:01;;;;;;;;;;;;;;;-144.99;36.61;51905.97;5085531;28;19924;-76
2021/09/05 10:58:34;;;;;;;;;;;;;;;-144.99;40.12;51999.69;5083217;28;19936;-77
2021/09/05 11:01:04;;;;;;;;;;;;;;;-144.99;40.21;52009.91;5078952;28;19931;-77
2021/09/05 11:03:30;;;;;;;;;;;;;;;-144.99;40.22;52077.16;5080579;28;19960;-77
2021/09/05 11:06:12;;;;;;;;;;;;;;;-144.99;39.85;51952.81;5078257;28;20378;-76
2021/09/05 11:08:39;;;;;;;;;;;;;;;-144.99;38.88;51963.03;5077326;28;20457;-78
2021/09/05 11:11:06;;;;;;;;;;;;;;;-144.99;38.21;51908.00;5118615;22;20416;-79
2021/09/05 11:13:48;;;;;;;;;;;;;;;-144.99;37.58;51912.06;5104345;28;19928;-80
2021/09/05 11:16:15;;;;;;;;;;;;;;;-144.99;36.79;51914.09;5099013;28;20023;-78
2021/09/05 11:18:44;;;;;;;;;;;;;;;-144.99;37.52;51885.56;5102455;28;20045;-81
2021/09/05 11:21:22;;;;;;;;;;;;;;;-144.99;38.28;51934.50;5098700;28;20012;-76
2021/09/05 11:23:50;;;;;;;;;;;;;;;-144.99;38.14;51914.09;5107009;28;19930;-78
2021/09/05 11:26:17;;;;;;;;;;;;;;;-144.99;37.73;51918.19;5108480;28;19928;-81
2021/09/05 11:28:43;;;;;;;;;;;;;;;-144.99;37.18;51869.28;5105103;28;19928;-79
2021/09/05 11:31:09;;;;;;;;;;;;;;;-144.99;36.95;51873.34;5104119;28;19928;-80
2021/09/05 11:33:36;;;;;;;;;;;;;;;-144.99;36.75;51877.44;5107199;28;20214;-80
2021/09/05 11:36:07;;;;;;;;;;;;;;;-144.99;36.03;51885.56;5107919;28;19927;-80
2021/09/05 11:38:33;;;;;;;;;;;;;;;-144.99;37.05;51918.19;5101652;28;20000;-78
2021/09/05 11:41:01;;;;;;;;;;;;;;;-144.99;37.01;51934.50;5111098;28;19927;-79
2021/09/05 11:43:34;;;;;;;;;;;;;;;-144.99;36.60;51877.44;5116436;28;19924;-77
2021/09/05 11:46:08;;;;;;;;;;;;;;;-144.99;37.69;51934.50;5101647;28;19928;-79
2021/09/05 11:48:35;;;;;;;;;;;;;;;-144.99;37.70;51905.97;5105198;28;19935;-78
2021/09/05 11:51:01;;;;;;;;;;;;;;;-144.99;37.07;51910.03;5108397;28;20365;-81
2021/09/05 11:53:28;;;;;;;;;;;;;;;-144.99;36.35;51914.09;5106212;28;19958;-79
2021/09/05 11:55:54;;;;;;;;;;;;;;;-144.99;36.49;51885.56;5098387;28;19939;-79
2021/09/05 11:58:22;;;;;;;;;;;;;;;-144.99;35.79;51852.97;5102828;28;19928;-77
2021/09/05 12:00:53;;;;;;;;;;;;;;;-144.99;36.19;52040.47;5090872;28;19939;-77
2021/09/05 12:03:24;;;;;;;;;;;;;;;-144.99;36.57;51942.63;5100971;28;20324;-78
2021/09/05 12:05:53;;;;;;;;;;;;;;;-144.99;37.23;52077.16;5093303;28;19928;-78
2021/09/05 12:08:19;;;;;;;;;;;;;;;-144.99;37.36;51926.34;5089103;28;19927;-78
2021/09/05 12:10:46;;;;;;;;;;;;;;;-144.99;37.37;52101.59;5102706;28;19935;-80
2021/09/05 12:13:14;;;;;;;;;;;;;;;-144.99;37.55;52050.66;5103311;28;20264;-80
2021/09/05 12:15:43;;;;;;;;;;;;;;;-144.99;37.64;52016.00;5107546;28;20040;-80
2021/09/05 12:18:20;;;;;;;;;;;;;;;-144.99;37.38;51901.88;5102919;28;19924;-80
2021/09/05 12:20:47;;;;;;;;;;;;;;;-144.99;37.03;51916.16;5095729;28;19943;-77
2021/09/05 12:23:28;;;;;;;;;;;;;;;-144.99;36.41;51963.03;5099656;28;19931;-79